Time;durP1;ratioP1;P1;durP2;ratioP2;P2;SDS_P1;SDS_P2;PMS_P1;PMS_P2;Temp;Humidity;BMP_temperature;BMP_pressure;BME280_temperature;BME280_humidity;BME280_pressure;Samples;Min_cycle;Max_cycle;Signal;HPM_P1;HPM_P2
2021/11/23 00:01:12;;;;;;;3.70;2.00;;;5.20;99.90;;;;;;5044183;28;20152;-67
2021/11/23 00:03:39;;;;;;;5.82;1.85;;;5.30;99.90;;;;;;5049169;28;20712;-66
2021/11/23 00:06:06;;;;;;;4.65;1.15;;;5.20;99.90;;;;;;5047721;28;20494;-66
2021/11/23 00:08:34;;;;;;;4.88;2.70;;;5.30;99.90;;;;;;5046829;28;20132;-65
2021/11/23 00:11:01;;;;;;;5.82;1.30;;;5.30;99.90;;;;;;5043014;28;20121;-69
2021/11/23 00:13:27;;;;;;;6.68;1.58;;;5.30;99.90;;;;;;5048791;28;20126;-67
2021/11/23 00:15:55;;;;;;;6.82;2.20;;;5.30;99.90;;;;;;5046657;28;20375;-65
2021/11/23 00:18:22;;;;;;;4.50;1.20;;;5.40;99.90;;;;;;5048108;28;20045;-64
2021/11/23 00:20:49;;;;;;;5.90;1.40;;;5.30;99.90;;;;;;5046218;28;20119;-64
2021/11/23 00:23:17;;;;;;;6.32;1.00;;;5.30;99.90;;;;;;5041261;28;20527;-69
2021/11/23 00:25:45;;;;;;;2.10;0.95;;;5.30;99.90;;;;;;5045340;28;20045;-64
2021/11/23 00:28:12;;;;;;;8.18;1.70;;;5.40;99.90;;;;;;5045580;28;20041;-65
2021/11/23 00:30:40;;;;;;;6.72;2.70;;;5.40;99.90;;;;;;5047103;28;20052;-67
2021/11/23 00:33:07;;;;;;;2.65;1.38;;;5.40;99.90;;;;;;5044684;28;20549;-70
2021/11/23 00:35:37;;;;;;;5.65;1.05;;;5.40;99.90;;;;;;5047840;28;20149;-65
2021/11/23 00:38:05;;;;;;;6.45;1.55;;;5.40;99.90;;;;;;5045059;28;20057;-65
2021/11/23 00:40:33;;;;;;;4.68;1.00;;;5.40;99.90;;;;;;5046378;28;20045;-64
2021/11/23 00:43:04;;;;;;;5.53;1.42;;;5.40;99.90;;;;;;5041387;28;20045;-66
2021/11/23 00:45:33;;;;;;;2.78;1.02;;;5.40;99.90;;;;;;5046713;28;20075;-68
2021/11/23 00:48:00;;;;;;;6.22;1.30;;;5.40;99.90;;;;;;5046096;28;20041;-64
2021/11/23 00:50:28;;;;;;;7.15;2.10;;;5.40;99.90;;;;;;5043774;28;20650;-65
2021/11/23 00:52:55;;;;;;;4.13;1.35;;;5.50;99.90;;;;;;5028640;28;20046;-69
2021/11/23 00:55:22;;;;;;;7.35;1.27;;;5.40;99.90;;;;;;5030247;28;20580;-66
2021/11/23 00:57:49;;;;;;;6.75;2.60;;;5.40;99.90;;;;;;5046714;28;20049;-70
2021/11/23 01:00:16;;;;;;;5.53;1.58;;;5.40;99.90;;;;;;5047339;28;20441;-66
2021/11/23 01:02:44;;;;;;;9.30;1.65;;;5.40;99.90;;;;;;5047193;28;20060;-65
2021/11/23 01:05:11;;;;;;;8.85;1.67;;;5.40;99.90;;;;;;5044573;28;20107;-66
2021/11/23 01:07:38;;;;;;;2.63;1.08;;;5.40;99.90;;;;;;5046394;28;20049;-65
2021/11/23 01:10:08;;;;;;;9.85;1.35;;;5.40;99.90;;;;;;5045802;28;20052;-67
2021/11/23 01:12:36;;;;;;;5.28;0.85;;;5.30;99.90;;;;;;5044218;28;20483;-74
2021/11/23 01:15:05;;;;;;;5.78;1.10;;;5.30;99.90;;;;;;5045487;28;20056;-73
2021/11/23 01:17:32;;;;;;;4.57;1.00;;;5.30;99.90;;;;;;5041815;28;20068;-65
2021/11/23 01:19:59;;;;;;;8.68;1.70;;;5.30;99.90;;;;;;5043717;28;20045;-75
2021/11/23 01:22:26;;;;;;;11.55;1.73;;;5.30;99.90;;;;;;5041276;28;20712;-66
2021/11/23 01:24:53;;;;;;;4.28;1.95;;;5.40;99.90;;;;;;5047450;28;20516;-65
2021/11/23 01:27:21;;;;;;;4.43;1.10;;;5.40;99.90;;;;;;5042901;28;20045;-70
2021/11/23 01:29:48;;;;;;;4.70;2.63;;;5.40;99.90;;;;;;5048280;28;20057;-69
2021/11/23 01:32:15;;;;;;;6.38;2.10;;;5.50;99.90;;;;;;5044743;28;20041;-65
2021/11/23 01:34:42;;;;;;;8.35;1.92;;;5.50;99.90;;;;;;5047867;28;20045;-66
2021/11/23 01:37:09;;;;;;;8.15;1.30;;;5.50;99.90;;;;;;5044904;28;20544;-64
2021/11/23 01:39:36;;;;;;;6.18;1.50;;;5.50;99.90;;;;;;5047877;28;20071;-65
2021/11/23 01:42:03;;;;;;;5.07;1.20;;;5.50;99.90;;;;;;5044290;28;21331;-71
2021/11/23 01:44:31;;;;;;;11.38;2.30;;;5.50;99.90;;;;;;5047970;28;20092;-65
2021/11/23 01:46:58;;;;;;;6.57;1.50;;;5.50;99.90;;;;;;5042564;28;20041;-71
2021/11/23 01:49:26;;;;;;;3.33;1.05;;;5.50;99.90;;;;;;5044642;28;20101;-72
2021/11/23 01:51:53;;;;;;;4.95;1.92;;;5.50;99.90;;;;;;5045017;28;20147;-66
2021/11/23 01:54:20;;;;;;;6.40;1.15;;;5.50;99.90;;;;;;5046334;28;20064;-65
2021/11/23 01:56:47;;;;;;;5.95;2.33;;;5.40;99.90;;;;;;5046537;28;20052;-71
2021/11/23 01:59:14;;;;;;;4.40;1.15;;;5.50;99.90;;;;;;5044453;28;20060;-66
2021/11/23 02:01:45;;;;;;;7.05;1.08;;;5.40;99.90;;;;;;5046036;28;20073;-64
2021/11/23 02:04:12;;;;;;;5.07;1.40;;;5.40;99.90;;;;;;5042652;28;20152;-67
2021/11/23 02:06:40;;;;;;;3.97;1.00;;;5.40;99.90;;;;;;5045947;28;20055;-65
2021/11/23 02:09:07;;;;;;;3.35;1.67;;;5.40;99.90;;;;;;5045103;28;20098;-65
2021/11/23 02:11:34;;;;;;;5.90;1.63;;;5.40;99.90;;;;;;5044763;28;20052;-64
2021/11/23 02:14:02;;;;;;;3.28;1.27;;;5.30;99.90;;;;;;5041411;28;20041;-65
2021/11/23 02:16:29;;;;;;;1.73;0.77;;;5.30;99.90;;;;;;5045171;28;20053;-64
2021/11/23 02:18:56;;;;;;;3.53;1.58;;;5.30;99.90;;;;;;5041108;28;20064;-67
2021/11/23 02:21:24;;;;;;;5.85;0.98;;;5.30;99.90;;;;;;5041679;28;20060;-64
2021/11/23 02:23:51;;;;;;;4.72;0.98;;;5.30;99.90;;;;;;5033395;28;20062;-64
2021/11/23 02:26:18;;;;;;;2.28;1.17;;;5.30;99.90;;;;;;5046493;28;20469;-64
2021/11/23 02:28:45;;;;;;;5.47;1.38;;;5.30;99.90;;;;;;5046299;28;20144;-65
2021/11/23 02:31:12;;;;;;;7.90;1.73;;;5.20;99.90;;;;;;5042165;28;20398;-64
2021/11/23 02:33:39;;;;;;;1.65;0.60;;;5.20;99.90;;;;;;5045164;28;20633;-64
2021/11/23 02:36:09;;;;;;;2.83;1.85;;;5.20;99.90;;;;;;5046710;28;20045;-71
2021/11/23 02:38:38;;;;;;;4.30;1.58;;;5.20;99.90;;;;;;5045991;28;20540;-66
2021/11/23 02:41:08;;;;;;;8.60;1.50;;;5.10;99.90;;;;;;5043236;28;20048;-66
2021/11/23 02:43:36;;;;;;;2.95;0.93;;;5.20;99.90;;;;;;5043688;28;20114;-64
2021/11/23 02:46:04;;;;;;;4.72;1.17;;;5.10;99.90;;;;;;5046416;28;20099;-65
2021/11/23 02:48:31;;;;;;;1.95;0.57;;;5.10;99.90;;;;;;5044143;28;20053;-64
2021/11/23 02:53:26;;;;;;;2.50;1.08;;;5.00;99.90;;;;;;5041879;28;20662;-68
2021/11/23 02:55:53;;;;;;;4.07;1.00;;;5.00;99.90;;;;;;5041878;28;20118;-64
2021/11/23 02:58:21;;;;;;;4.68;1.60;;;4.90;99.90;;;;;;5041067;28;20048;-64
2021/11/23 03:00:49;;;;;;;3.05;0.50;;;4.90;99.90;;;;;;5046498;28;20076;-68
2021/11/23 03:03:16;;;;;;;4.00;0.65;;;4.90;99.90;;;;;;5044435;28;20045;-63
2021/11/23 03:05:43;;;;;;;6.13;1.10;;;4.90;99.90;;;;;;5048540;28;20076;-64
2021/11/23 03:08:14;;;;;;;5.75;1.17;;;4.90;99.90;;;;;;5048312;28;20037;-67
2021/11/23 03:10:41;;;;;;;4.03;0.82;;;4.90;99.90;;;;;;5044280;28;20471;-66
2021/11/23 03:13:08;;;;;;;4.68;0.88;;;4.90;99.90;;;;;;5045154;28;20102;-65
2021/11/23 03:15:36;;;;;;;4.78;1.33;;;4.90;99.90;;;;;;5046765;28;20074;-71
2021/11/23 03:18:03;;;;;;;0.93;0.68;;;4.90;99.90;;;;;;5047894;28;20551;-65
2021/11/23 03:20:30;;;;;;;5.93;1.48;;;4.80;99.90;;;;;;5050541;28;20069;-65
2021/11/23 03:22:58;;;;;;;9.57;1.65;;;4.80;99.90;;;;;;5049542;28;20126;-72
2021/11/23 03:25:26;;;;;;;2.47;0.98;;;4.80;99.90;;;;;;5043748;28;20049;-64
2021/11/23 03:27:53;;;;;;;6.82;1.90;;;4.80;99.90;;;;;;5045099;28;20049;-65
2021/11/23 03:30:25;;;;;;;4.03;1.13;;;4.70;99.90;;;;;;5049217;28;20059;-68
2021/11/23 03:32:57;;;;;;;5.03;2.33;;;4.70;99.90;;;;;;5048719;28;20067;-65
2021/11/23 03:35:26;;;;;;;7.32;1.98;;;4.70;99.90;;;;;;5048823;28;20041;-65
2021/11/23 03:37:55;;;;;;;7.75;1.42;;;4.70;99.90;;;;;;5048488;28;20049;-66
2021/11/23 03:40:24;;;;;;;0.75;0.63;;;4.70;99.90;;;;;;5042952;28;20382;-65
2021/11/23 03:42:52;;;;;;;2.72;1.23;;;4.60;99.90;;;;;;5047863;28;20037;-65
2021/11/23 03:45:20;;;;;;;4.97;1.40;;;4.60;99.90;;;;;;5048050;28;20056;-65
2021/11/23 03:47:48;;;;;;;4.43;1.73;;;4.60;99.90;;;;;;5051212;28;20118;-65
2021/11/23 03:50:17;;;;;;;5.13;1.05;;;4.70;99.90;;;;;;5049181;28;20132;-67
2021/11/23 03:52:45;;;;;;;6.53;1.52;;;4.60;99.90;;;;;;5049304;28;20045;-65
2021/11/23 03:55:15;;;;;;;3.70;0.82;;;4.70;99.90;;;;;;5047615;28;20041;-66
2021/11/23 03:57:43;;;;;;;;;;;4.70;99.90;;;;;;5049889;28;20378;-65
2021/11/23 04:00:14;;;;;;;3.22;1.17;;;4.70;99.90;;;;;;5042817;28;19925;-71
2021/11/23 04:02:43;;;;;;;4.53;0.70;;;4.70;99.90;;;;;;5050116;28;20052;-64
2021/11/23 04:05:10;;;;;;;6.60;1.15;;;4.70;99.90;;;;;;5043752;28;20130;-69
2021/11/23 04:07:40;;;;;;;5.28;2.28;;;4.70;99.90;;;;;;5043452;28;20159;-64
2021/11/23 04:10:09;;;;;;;1.38;0.82;;;4.70;99.90;;;;;;5044752;28;20037;-65
2021/11/23 04:12:37;;;;;;;2.35;0.90;;;4.70;99.90;;;;;;5048879;28;20049;-66
2021/11/23 04:15:07;;;;;;;4.32;1.10;;;4.70;99.90;;;;;;5047582;28;20048;-65
2021/11/23 04:17:35;;;;;;;2.35;0.65;;;4.60;99.90;;;;;;5048731;28;20550;-73
2021/11/23 04:20:04;;;;;;;5.40;0.85;;;4.60;99.90;;;;;;5048443;28;20045;-68
2021/11/23 04:22:31;;;;;;;3.15;0.93;;;4.60;99.90;;;;;;5047707;28;20049;-66
2021/11/23 04:24:58;;;;;;;9.55;1.77;;;4.60;99.90;;;;;;5044790;28;20043;-73
2021/11/23 04:27:27;;;;;;;3.83;1.00;;;4.50;99.90;;;;;;5046912;28;20044;-67
2021/11/23 04:29:54;;;;;;;5.10;1.20;;;4.50;99.90;;;;;;5047625;28;20045;-64
2021/11/23 04:32:21;;;;;;;3.05;1.45;;;4.50;99.90;;;;;;5049173;28;20426;-74
2021/11/23 04:34:48;;;;;;;4.40;1.67;;;4.50;99.90;;;;;;5046192;28;20064;-69
2021/11/23 04:37:15;;;;;;;5.07;1.63;;;4.40;99.90;;;;;;5048399;28;20040;-64
2021/11/23 04:39:43;;;;;;;5.47;1.70;;;4.40;99.90;;;;;;5047992;28;20065;-71
2021/11/23 04:42:10;;;;;;;5.32;2.05;;;4.30;99.90;;;;;;5060366;28;20874;-65
2021/11/23 04:44:37;;;;;;;6.00;1.50;;;4.40;99.90;;;;;;5049275;28;20059;-65
2021/11/23 04:47:04;;;;;;;6.55;1.88;;;4.40;99.90;;;;;;5048016;28;20041;-71
2021/11/23 04:49:31;;;;;;;2.60;1.02;;;4.40;99.90;;;;;;5046814;28;20033;-64
2021/11/23 04:51:58;;;;;;;4.13;0.85;;;4.40;99.90;;;;;;5049257;28;20053;-67
2021/11/23 04:54:25;;;;;;;4.10;1.20;;;4.40;99.90;;;;;;5047225;28;20076;-68
2021/11/23 04:56:52;;;;;;;2.35;1.23;;;4.30;99.90;;;;;;5048908;28;20581;-66
2021/11/23 04:59:20;;;;;;;8.15;1.10;;;4.30;99.90;;;;;;5044135;28;20060;-64
2021/11/23 05:01:47;;;;;;;4.22;1.27;;;4.30;99.90;;;;;;5046809;28;20053;-66
2021/11/23 05:04:14;;;;;;;3.10;0.80;;;4.30;99.90;;;;;;5044537;28;20081;-73
2021/11/23 05:06:41;;;;;;;1.30;0.68;;;4.40;99.90;;;;;;5041530;28;20056;-65
2021/11/23 05:09:08;;;;;;;5.25;1.50;;;4.40;99.90;;;;;;5041843;28;20545;-69
2021/11/23 05:11:39;;;;;;;2.35;0.60;;;4.40;99.90;;;;;;5044076;28;20048;-72
2021/11/23 05:14:06;;;;;;;3.95;1.13;;;4.40;99.90;;;;;;5045559;28;20342;-64
2021/11/23 05:16:33;;;;;;;4.35;1.85;;;4.30;99.90;;;;;;5039550;28;20040;-64
2021/11/23 05:19:00;;;;;;;2.38;1.00;;;4.40;99.90;;;;;;5039893;28;20045;-65
2021/11/23 05:21:27;;;;;;;3.70;0.70;;;4.30;99.90;;;;;;5040189;28;20041;-67
2021/11/23 05:23:54;;;;;;;1.92;0.85;;;4.30;99.90;;;;;;5044524;28;20594;-68
2021/11/23 05:26:21;;;;;;;1.27;0.50;;;4.40;99.90;;;;;;5045574;28;20053;-64
2021/11/23 05:28:48;;;;;;;1.17;0.95;;;4.30;99.90;;;;;;5043697;28;20049;-69
2021/11/23 05:31:15;;;;;;;3.38;1.02;;;4.30;99.90;;;;;;5039918;28;20045;-65
2021/11/23 05:33:42;;;;;;;2.53;1.75;;;4.30;99.90;;;;;;5044512;28;20703;-67
2021/11/23 05:36:09;;;;;;;4.85;0.90;;;4.30;99.90;;;;;;5042861;28;20049;-67
2021/11/23 05:38:36;;;;;;;2.08;0.73;;;4.30;99.90;;;;;;5033591;28;20103;-64
2021/11/23 05:41:03;;;;;;;3.45;0.85;;;4.20;99.90;;;;;;5036125;28;20033;-68
2021/11/23 05:43:32;;;;;;;2.60;0.90;;;4.30;99.90;;;;;;5038028;28;20049;-64
2021/11/23 05:45:59;;;;;;;11.90;2.20;;;4.30;99.90;;;;;;5041090;28;20037;-64
2021/11/23 05:48:27;;;;;;;4.78;0.30;;;4.20;99.90;;;;;;5041621;28;20126;-65
2021/11/23 05:50:54;;;;;;;1.13;0.57;;;4.20;99.90;;;;;;5037829;28;20049;-64
2021/11/23 05:53:21;;;;;;;6.82;0.70;;;4.30;99.90;;;;;;5038068;28;20422;-68
2021/11/23 05:55:48;;;;;;;5.05;1.20;;;4.30;99.90;;;;;;5039529;28;20604;-64
2021/11/23 05:58:15;;;;;;;4.00;0.90;;;4.30;99.90;;;;;;5041630;28;20048;-64
2021/11/23 06:00:42;;;;;;;7.88;0.82;;;4.30;99.90;;;;;;5043835;28;20125;-65
2021/11/23 06:03:09;;;;;;;2.17;0.73;;;4.30;99.90;;;;;;5039026;28;20092;-67
2021/11/23 06:05:36;;;;;;;3.58;0.75;;;4.30;99.90;;;;;;5036590;28;20502;-65
2021/11/23 06:08:03;;;;;;;3.05;1.02;;;4.20;99.90;;;;;;5043712;28;20047;-65
2021/11/23 06:10:30;;;;;;;2.20;0.70;;;4.20;99.90;;;;;;5040954;28;20491;-64
2021/11/23 06:12:57;;;;;;;2.83;1.35;;;4.30;99.90;;;;;;5040384;28;20045;-65
2021/11/23 06:15:24;;;;;;;6.15;0.65;;;4.30;99.90;;;;;;5037217;28;20041;-66
2021/11/23 06:17:58;;;;;;;2.08;1.95;;;4.30;99.90;;;;;;5042377;28;20040;-76
2021/11/23 06:20:25;;;;;;;2.45;0.60;;;4.30;99.90;;;;;;5034379;28;20056;-64
2021/11/23 06:22:54;;;;;;;2.28;0.90;;;4.30;99.90;;;;;;5040362;28;20041;-74
2021/11/23 06:25:21;;;;;;;1.75;0.60;;;4.30;99.90;;;;;;5036466;28;20102;-66
2021/11/23 06:27:48;;;;;;;1.55;0.60;;;4.30;99.90;;;;;;5042116;28;20556;-65
2021/11/23 06:30:16;;;;;;;3.17;1.63;;;4.30;99.90;;;;;;5043868;28;20044;-65
2021/11/23 06:32:43;;;;;;;4.07;0.75;;;4.30;99.90;;;;;;5042075;28;20060;-65
2021/11/23 06:35:10;;;;;;;2.30;0.55;;;4.30;99.90;;;;;;5040850;28;20057;-64
2021/11/23 06:37:38;;;;;;;3.30;0.90;;;4.30;99.90;;;;;;5042219;28;20126;-65
2021/11/23 06:40:07;;;;;;;2.08;0.82;;;4.30;99.90;;;;;;5047599;28;20049;-65
2021/11/23 06:42:34;;;;;;;2.75;0.98;;;4.30;99.90;;;;;;5043523;28;20046;-64
2021/11/23 06:45:02;;;;;;;4.97;0.77;;;4.30;99.90;;;;;;5032267;28;20815;-66
2021/11/23 06:47:29;;;;;;;4.72;1.00;;;4.30;99.90;;;;;;5042817;28;20033;-68
2021/11/23 06:49:56;;;;;;;1.92;0.90;;;4.30;99.90;;;;;;5044833;28;20045;-68
2021/11/23 06:52:24;;;;;;;2.22;0.57;;;4.30;99.90;;;;;;5044095;28;20049;-64
2021/11/23 06:54:52;;;;;;;2.40;1.10;;;4.30;99.90;;;;;;5043789;28;20119;-66
2021/11/23 06:57:19;;;;;;;3.90;0.88;;;4.30;99.90;;;;;;5041524;28;20045;-65
2021/11/23 06:59:46;;;;;;;1.60;0.93;;;4.40;99.90;;;;;;5043987;28;20444;-64
2021/11/23 07:02:14;;;;;;;4.03;0.50;;;4.40;99.90;;;;;;5039943;28;20045;-68
2021/11/23 07:04:41;;;;;;;3.67;0.50;;;4.40;99.90;;;;;;5045847;28;20049;-68
2021/11/23 07:07:09;;;;;;;5.45;0.70;;;4.40;99.90;;;;;;5042507;28;20045;-65
2021/11/23 07:09:36;;;;;;;1.75;0.40;;;4.40;99.90;;;;;;5044882;28;20029;-68
2021/11/23 07:12:04;;;;;;;1.65;1.15;;;4.40;99.90;;;;;;5043427;28;20106;-75
2021/11/23 07:14:32;;;;;;;2.80;0.60;;;4.40;99.90;;;;;;5045001;28;20064;-66
2021/11/23 07:16:59;;;;;;;1.48;1.35;;;4.40;99.90;;;;;;5041437;28;20087;-66
2021/11/23 07:19:26;;;;;;;3.90;0.50;;;4.40;99.90;;;;;;5045940;28;20132;-69
2021/11/23 07:21:53;;;;;;;4.20;0.80;;;4.40;99.90;;;;;;5044481;28;20060;-67
2021/11/23 07:24:21;;;;;;;3.13;0.50;;;4.40;99.90;;;;;;5036463;28;20068;-65
2021/11/23 07:26:48;;;;;;;2.50;0.50;;;4.50;99.90;;;;;;5039741;28;20118;-71
2021/11/23 07:29:15;;;;;;;3.10;1.70;;;4.40;99.90;;;;;;5035969;28;20116;-64
2021/11/23 07:31:43;;;;;;;1.35;0.30;;;4.40;99.90;;;;;;5043800;28;20037;-65
2021/11/23 07:34:10;;;;;;;4.75;1.40;;;4.50;99.90;;;;;;5045149;28;20041;-66
2021/11/23 07:36:38;;;;;;;3.25;1.55;;;4.50;99.90;;;;;;5043043;28;20057;-66
2021/11/23 07:39:07;;;;;;;2.00;0.43;;;4.50;99.90;;;;;;5044539;28;20099;-65
2021/11/23 07:41:34;;;;;;;3.47;0.70;;;4.50;99.90;;;;;;5044992;28;20123;-71
2021/11/23 07:44:03;;;;;;;8.23;1.15;;;4.50;99.90;;;;;;5041354;28;20052;-64
2021/11/23 07:46:30;;;;;;;2.25;1.00;;;4.50;99.90;;;;;;5044236;28;20107;-67
2021/11/23 07:48:57;;;;;;;1.60;0.60;;;4.50;99.90;;;;;;5049883;28;20045;-67
2021/11/23 07:51:24;;;;;;;2.22;0.50;;;4.50;99.90;;;;;;5045653;28;20049;-67
2021/11/23 07:53:52;;;;;;;5.28;1.00;;;4.50;99.90;;;;;;5046685;28;20049;-64
2021/11/23 07:56:20;;;;;;;3.83;0.60;;;4.50;99.90;;;;;;5042400;28;20100;-65
2021/11/23 07:58:47;;;;;;;5.35;0.60;;;4.50;99.90;;;;;;5046741;28;20049;-64
2021/11/23 08:01:14;;;;;;;2.95;0.95;;;4.50;99.90;;;;;;5048768;28;20106;-64
2021/11/23 08:03:41;;;;;;;8.65;1.00;;;4.50;99.90;;;;;;5042395;28;20556;-68
2021/11/23 08:06:09;;;;;;;9.27;0.80;;;4.50;99.90;;;;;;5045294;28;20118;-65
2021/11/23 08:08:36;;;;;;;5.88;0.93;;;4.50;99.90;;;;;;5041389;28;20049;-64
2021/11/23 08:11:04;;;;;;;2.35;0.65;;;4.50;99.90;;;;;;5046983;28;20045;-65
2021/11/23 08:13:31;;;;;;;2.22;0.75;;;4.50;99.90;;;;;;5047076;28;20068;-68
2021/11/23 08:16:03;;;;;;;3.85;1.40;;;4.50;99.90;;;;;;5040693;28;20048;-68
2021/11/23 08:18:32;;;;;;;2.63;0.63;;;4.50;99.90;;;;;;5045502;28;20048;-64
2021/11/23 08:21:00;;;;;;;3.28;0.73;;;4.50;99.90;;;;;;5048604;28;20087;-68
2021/11/23 08:23:27;;;;;;;1.85;0.38;;;4.50;99.90;;;;;;5048356;28;20060;-68
2021/11/23 08:25:55;;;;;;;1.00;0.45;;;4.50;99.90;;;;;;5048611;28;20404;-64
2021/11/23 08:28:26;;;;;;;3.88;0.93;;;4.50;99.90;;;;;;5046898;28;20056;-69
2021/11/23 08:30:56;;;;;;;1.15;0.75;;;4.50;99.90;;;;;;5049606;28;20049;-65
2021/11/23 08:33:25;;;;;;;1.38;0.77;;;4.50;99.90;;;;;;5042639;28;20049;-71
2021/11/23 08:35:53;;;;;;;1.25;0.35;;;4.50;99.90;;;;;;5048872;28;20457;-64
2021/11/23 08:38:20;;;;;;;1.73;0.77;;;4.50;99.90;;;;;;5046196;28;20044;-71
2021/11/23 08:40:47;;;;;;;1.70;0.88;;;4.50;99.90;;;;;;5047962;28;20041;-64
2021/11/23 08:43:15;;;;;;;1.00;0.50;;;4.50;99.90;;;;;;5044336;28;20504;-70
2021/11/23 08:45:45;;;;;;;1.55;0.52;;;4.50;99.90;;;;;;5046636;28;20357;-68
2021/11/23 08:48:13;;;;;;;1.13;0.80;;;4.50;99.90;;;;;;5047490;28;20392;-65
2021/11/23 08:50:41;;;;;;;5.07;0.38;;;4.50;99.90;;;;;;5046108;28;20041;-64
2021/11/23 08:53:09;;;;;;;3.35;0.80;;;4.50;99.90;;;;;;5044565;28;20044;-68
2021/11/23 08:55:37;;;;;;;2.20;0.85;;;4.60;99.90;;;;;;5047061;28;20044;-64
2021/11/23 08:58:06;;;;;;;12.68;1.67;;;4.50;99.90;;;;;;5046697;28;20056;-66
2021/11/23 09:00:34;;;;;;;3.60;2.15;;;4.60;99.90;;;;;;5044974;28;20332;-69
2021/11/23 09:03:01;;;;;;;3.35;0.85;;;4.60;99.90;;;;;;5046303;28;20044;-68
2021/11/23 09:05:36;;;;;;;5.18;0.60;;;4.60;99.90;;;;;;5048164;28;20467;-67
2021/11/23 09:08:05;;;;;;;9.38;1.65;;;4.60;99.90;;;;;;5045470;28;20160;-65
2021/11/23 09:10:35;;;;;;;3.08;2.22;;;4.60;99.90;;;;;;5046232;28;20446;-69
2021/11/23 09:13:04;;;;;;;3.38;1.02;;;4.60;99.90;;;;;;5044693;28;20057;-68
2021/11/23 09:15:31;;;;;;;4.03;1.58;;;4.60;99.90;;;;;;5047120;28;20053;-65
2021/11/23 09:18:03;;;;;;;4.20;0.93;;;4.60;99.90;;;;;;5044533;28;20159;-68
2021/11/23 09:20:36;;;;;;;4.72;0.75;;;4.60;99.90;;;;;;5046654;28;20063;-64
2021/11/23 09:23:11;;;;;;;4.60;1.90;;;4.60;99.90;;;;;;5041482;28;20128;-68
2021/11/23 09:25:40;;;;;;;2.55;0.73;;;4.60;99.90;;;;;;5042990;28;20045;-69
2021/11/23 09:28:07;;;;;;;4.63;0.57;;;4.60;99.90;;;;;;5046709;28;20094;-65
2021/11/23 09:30:35;;;;;;;4.05;0.70;;;4.60;99.90;;;;;;5041029;28;20049;-69
2021/11/23 09:33:03;;;;;;;5.10;0.90;;;4.70;99.90;;;;;;5045998;28;20040;-67
2021/11/23 09:35:30;;;;;;;5.78;1.35;;;4.60;99.90;;;;;;5046813;28;20063;-65
2021/11/23 09:37:58;;;;;;;6.97;1.48;;;4.70;99.90;;;;;;5044901;28;20041;-66
2021/11/23 09:40:26;;;;;;;3.47;0.70;;;4.70;99.90;;;;;;5046159;28;20038;-74
2021/11/23 09:42:54;;;;;;;4.75;1.05;;;4.80;99.90;;;;;;5046990;28;20486;-64
2021/11/23 09:45:21;;;;;;;5.97;1.25;;;4.70;99.90;;;;;;5039529;28;20363;-64
2021/11/23 09:47:48;;;;;;;1.70;0.90;;;4.70;99.90;;;;;;5047508;28;20033;-65
2021/11/23 09:50:15;;;;;;;4.53;1.55;;;4.70;99.90;;;;;;5046625;28;20036;-64
2021/11/23 09:52:44;;;;;;;4.00;2.33;;;4.70;99.90;;;;;;5047651;28;20045;-68
2021/11/23 09:55:13;;;;;;;9.85;1.30;;;4.70;99.90;;;;;;5043294;28;20075;-69
2021/11/23 09:57:40;;;;;;;3.83;0.70;;;4.70;99.90;;;;;;5046785;28;20037;-64
2021/11/23 10:00:23;;;;;;;2.33;1.20;;;4.70;99.90;;;;;;5045988;28;20053;-64
2021/11/23 10:02:50;;;;;;;5.50;1.17;;;4.60;99.90;;;;;;5042216;28;20460;-65
2021/11/23 10:05:19;;;;;;;7.40;0.90;;;4.70;99.90;;;;;;5044586;28;20052;-68
2021/11/23 10:07:46;;;;;;;3.10;0.60;;;4.70;99.90;;;;;;5046092;28;20502;-65
2021/11/23 10:10:19;;;;;;;3.83;0.85;;;4.70;99.90;;;;;;5044834;28;20044;-68
2021/11/23 10:12:51;;;;;;;1.50;1.10;;;4.70;99.90;;;;;;5042034;28;20073;-65
2021/11/23 10:15:45;;;;;;;7.45;1.23;;;4.80;99.90;;;;;;5039337;28;20087;-65
2021/11/23 10:18:16;;;;;;;4.20;1.58;;;4.80;99.90;;;;;;5045114;28;20041;-68
2021/11/23 10:20:47;;;;;;;7.93;1.20;;;4.80;99.90;;;;;;5045822;28;20556;-65
2021/11/23 10:23:30;;;;;;;3.08;1.30;;;4.80;99.90;;;;;;5044130;28;20125;-66
2021/11/23 10:26:14;;;;;;;4.75;0.77;;;4.80;99.90;;;;;;5045073;28;20422;-70
2021/11/23 10:28:44;;;;;;;3.55;0.88;;;4.90;99.90;;;;;;5044833;28;20049;-72
2021/11/23 10:31:12;;;;;;;2.55;0.88;;;4.90;99.90;;;;;;5039206;28;20449;-65
2021/11/23 10:33:42;;;;;;;4.18;0.73;;;4.90;99.90;;;;;;5044760;28;20111;-65
2021/11/23 10:36:16;;;;;;;4.93;0.90;;;4.90;99.90;;;;;;5044430;28;20106;-67
2021/11/23 10:38:43;;;;;;;5.70;1.52;;;4.90;99.90;;;;;;5049572;28;20052;-73
2021/11/23 10:41:14;;;;;;;3.55;1.20;;;4.90;99.90;;;;;;5041295;28;20102;-66
2021/11/23 10:43:43;;;;;;;5.47;0.77;;;5.00;99.90;;;;;;5047142;28;20136;-65
2021/11/23 10:46:19;;;;;;;10.75;0.95;;;5.00;99.90;;;;;;5043484;28;20049;-64
2021/11/23 10:48:58;;;;;;;10.75;1.33;;;4.90;99.90;;;;;;5046591;28;20514;-67
2021/11/23 10:51:26;;;;;;;2.97;0.55;;;5.00;99.90;;;;;;5044184;28;20386;-65
2021/11/23 10:54:15;;;;;;;12.93;1.65;;;5.00;99.90;;;;;;5045702;28;20517;-71
2021/11/23 10:56:58;;;;;;;5.13;1.25;;;4.90;99.90;;;;;;5045352;28;20049;-65
2021/11/23 10:59:29;;;;;;;1.83;0.80;;;5.00;99.90;;;;;;5044032;28;20106;-68
2021/11/23 11:01:57;;;;;;;7.10;2.38;;;5.00;99.90;;;;;;5046931;28;20454;-65
2021/11/23 11:04:27;;;;;;;7.03;2.15;;;5.00;99.90;;;;;;5041268;28;20041;-74
2021/11/23 11:06:56;;;;;;;1.30;0.68;;;4.90;99.90;;;;;;5043958;28;20048;-66
2021/11/23 11:09:26;;;;;;;6.57;1.05;;;4.90;99.90;;;;;;5041332;28;20103;-69
2021/11/23 11:11:53;;;;;;;3.35;0.50;;;4.90;99.90;;;;;;5045002;28;20067;-65
2021/11/23 11:14:21;;;;;;;3.03;1.02;;;5.00;99.90;;;;;;5043673;28;20102;-69
2021/11/23 11:16:49;;;;;;;3.47;0.70;;;5.00;99.90;;;;;;5044565;28;20048;-65
2021/11/23 11:19:17;;;;;;;3.85;0.60;;;5.00;99.90;;;;;;5038443;28;20387;-66
2021/11/23 11:21:50;;;;;;;5.38;1.10;;;5.00;99.90;;;;;;5046772;28;20511;-67
2021/11/23 11:27:14;;;;;;;3.35;0.70;;;5.10;99.90;;;;;;5045058;28;20106;-67
2021/11/23 11:29:43;;;;;;;6.20;0.70;;;5.10;99.90;;;;;;5044785;28;20083;-65
2021/11/23 11:32:35;;;;;;;3.42;0.85;;;5.10;99.90;;;;;;5048177;28;20095;-64
2021/11/23 11:35:26;;;;;;;3.13;0.70;;;5.10;99.90;;;;;;5046704;28;20060;-70
2021/11/23 11:38:00;;;;;;;5.00;1.42;;;5.10;99.90;;;;;;5045517;28;20789;-69
2021/11/23 11:40:36;;;;;;;8.15;1.00;;;5.00;99.90;;;;;;5036815;28;20594;-66
2021/11/23 11:43:07;;;;;;;2.30;0.70;;;5.10;99.90;;;;;;5038971;28;20052;-65
2021/11/23 11:45:52;;;;;;;5.75;1.52;;;5.10;99.90;;;;;;5049265;28;20167;-67
2021/11/23 11:48:43;;;;;;;9.05;1.40;;;5.10;99.90;;;;;;5048286;28;20098;-64
2021/11/23 11:51:16;;;;;;;4.68;1.17;;;5.10;99.90;;;;;;5044258;28;20037;-67
2021/11/23 11:53:48;;;;;;;2.35;1.20;;;5.10;99.90;;;;;;5042311;28;20049;-66
2021/11/23 11:56:35;;;;;;;2.58;1.40;;;5.10;99.90;;;;;;5047601;28;20198;-64
2021/11/23 11:59:18;;;;;;;4.93;1.58;;;5.10;99.90;;;;;;5032165;28;20057;-77
2021/11/23 12:02:15;;;;;;;5.38;1.00;;;5.10;99.90;;;;;;5045812;28;20079;-66
2021/11/23 12:05:00;;;;;;;7.38;1.20;;;5.00;99.90;;;;;;5045979;28;20360;-65
2021/11/23 12:07:39;;;;;;;9.57;0.93;;;5.00;99.90;;;;;;5044520;28;20036;-70
2021/11/23 12:10:32;;;;;;;6.40;1.35;;;5.00;99.90;;;;;;5045080;28;20044;-64
2021/11/23 12:13:28;;;;;;;5.15;0.95;;;5.00;99.90;;;;;;5044329;28;20124;-66
2021/11/23 12:16:29;;;;;;;6.40;1.85;;;5.00;99.90;;;;;;5021922;28;20136;-69
2021/11/23 12:19:02;;;;;;;2.10;1.02;;;4.90;99.90;;;;;;5044521;28;20041;-64
2021/11/23 12:21:33;;;;;;;7.07;1.85;;;4.90;99.90;;;;;;5041532;28;20060;-67
2021/11/23 12:24:04;;;;;;;5.65;1.25;;;4.90;99.90;;;;;;5047689;28;20048;-65
2021/11/23 12:26:35;;;;;;;9.95;1.40;;;4.90;99.90;;;;;;5048864;28;20033;-68
2021/11/23 12:29:12;;;;;;;3.75;1.10;;;4.90;99.90;;;;;;5038400;28;20810;-70
2021/11/23 12:31:50;;;;;;;3.95;1.90;;;4.90;99.90;;;;;;5044491;28;20136;-65
2021/11/23 12:34:18;;;;;;;2.33;0.88;;;4.80;99.90;;;;;;5047777;28;20059;-69
2021/11/23 12:36:52;;;;;;;4.18;0.77;;;4.80;99.90;;;;;;5047387;28;20060;-65
2021/11/23 12:39:38;;;;;;;2.95;0.90;;;4.80;99.90;;;;;;5040460;28;21614;-68
2021/11/23 12:42:11;;;;;;;1.75;0.65;;;4.80;99.90;;;;;;5042003;28;20041;-64
2021/11/23 12:44:43;;;;;;;2.50;0.65;;;4.80;99.90;;;;;;5047705;28;20052;-64
2021/11/23 12:47:16;;;;;;;5.40;0.68;;;4.70;99.90;;;;;;5045774;28;20114;-67
2021/11/23 12:49:58;;;;;;;3.03;1.60;;;4.70;99.90;;;;;;5047364;28;20041;-64
2021/11/23 12:52:26;;;;;;;8.18;1.25;;;4.80;99.90;;;;;;5047943;28;20040;-65
2021/11/23 12:54:54;;;;;;;5.25;0.68;;;4.80;99.90;;;;;;5048460;28;20488;-64
2021/11/23 12:57:24;;;;;;;8.73;2.08;;;4.80;99.90;;;;;;5045550;28;20076;-64
2021/11/23 12:59:58;;;;;;;2.35;0.93;;;4.80;99.90;;;;;;5048095;28;20049;-73
2021/11/23 13:02:28;;;;;;;7.43;1.95;;;4.80;99.90;;;;;;5046275;28;20037;-64
2021/11/23 13:05:11;;;;;;;6.47;0.95;;;4.80;99.90;;;;;;5036666;28;20139;-67
2021/11/23 13:07:45;;;;;;;6.38;1.45;;;4.80;99.90;;;;;;5046234;28;20117;-64
2021/11/23 13:10:18;;;;;;;4.03;1.05;;;4.80;99.90;;;;;;5034798;28;20045;-71
2021/11/23 13:12:52;;;;;;;0.93;0.50;;;4.80;99.90;;;;;;5047058;28;20090;-67
2021/11/23 13:15:24;;;;;;;5.15;1.15;;;4.80;99.90;;;;;;5046705;28;22757;-64